Time;durP1;ratioP1;P1;durP2;ratioP2;P2;SDS_P1;SDS_P2;PMS_P1;PMS_P2;Temp;Humidity;BMP_temperature;BMP_pressure;BME280_temperature;BME280_humidity;BME280_pressure;Samples;Min_cycle;Max_cycle;Signal;HPM_P1;HPM_P2
2024/04/08 00:02:11;;;;;;;6.15;2.60;;;;;;;17.36;54.27;99528.25;4300428;33;34358;-89
2024/04/08 00:04:37;;;;;;;4.45;2.22;;;;;;;17.31;54.60;99527.41;4316060;33;33248;-90
2024/04/08 00:07:04;;;;;;;4.72;2.42;;;;;;;17.30;54.41;99527.44;4314139;33;34688;-89
2024/04/08 00:09:30;;;;;;;6.03;2.40;;;;;;;17.29;53.89;99523.09;4313104;33;34118;-88
2024/04/08 00:11:57;;;;;;;6.93;2.60;;;;;;;17.16;54.70;99524.91;4314645;33;33852;-89
2024/04/08 00:14:24;;;;;;;7.05;2.72;;;;;;;16.95;55.10;99529.44;4314239;33;33506;-88
2024/04/08 00:16:51;;;;;;;5.70;2.65;;;;;;;17.02;54.90;99522.44;4313629;33;33987;-88
2024/04/08 00:19:18;;;;;;;6.72;2.70;;;;;;;16.96;55.25;99523.31;4314103;33;35010;-89
2024/04/08 00:21:44;;;;;;;4.90;2.60;;;;;;;16.92;55.37;99529.47;4313494;33;33943;-88
2024/04/08 00:24:11;;;;;;;6.53;2.50;;;;;;;17.14;54.71;99537.19;4313822;33;34433;-89
2024/04/08 00:26:38;;;;;;;5.18;2.60;;;;;;;16.97;55.03;99537.28;4325297;33;34436;-90
2024/04/08 00:29:04;;;;;;;5.68;2.60;;;;;;;17.07;54.76;99535.47;4304562;33;33752;-89
2024/04/08 00:31:31;;;;;;;6.28;2.35;;;;;;;17.00;54.93;99539.88;4313723;33;33092;-90
2024/04/08 00:33:58;;;;;;;4.97;2.50;;;;;;;16.96;55.07;99535.56;4315856;33;33295;-89
2024/04/08 00:36:25;;;;;;;4.07;2.33;;;;;;;16.95;55.18;99541.69;4318170;33;34698;-89
2024/04/08 00:38:51;;;;;;;4.60;2.33;;;;;;;16.66;56.18;99539.22;4316043;33;34150;-89
2024/04/08 00:41:18;;;;;;;6.70;2.80;;;;;;;16.81;55.68;99551.37;4326034;33;34139;-89
2024/04/08 00:43:44;;;;;;;6.62;2.40;;;;;;;16.54;56.60;99541.00;4315255;33;34120;-90
2024/04/08 00:46:18;;;;;;;5.62;2.72;;;;;;;16.50;56.78;99544.53;4316298;33;33976;-89
2024/04/08 00:48:47;;;;;;;5.20;2.42;;;;;;;16.60;56.07;99541.88;4314046;33;34784;-88
2024/04/08 00:51:14;;;;;;;4.70;2.50;;;;;;;16.58;55.81;99535.78;4296120;33;32530;-88
2024/04/08 00:53:40;;;;;;;5.80;2.33;;;;;;;16.67;55.51;99539.22;4314991;33;32094;-88
2024/04/08 00:56:10;;;;;;;5.82;2.62;;;;;;;16.57;55.53;99534.03;4303141;33;35151;-87
2024/04/08 00:58:38;;;;;;;5.25;2.55;;;;;;;16.45;56.25;99533.22;4313653;33;33837;-90
2024/04/08 01:01:05;;;;;;;4.72;2.25;;;;;;;16.38;56.09;99528.91;4309774;33;34609;-90
2024/04/08 01:03:32;;;;;;;4.75;2.33;;;;;;;16.43;56.02;99532.34;4322720;33;34346;-89
2024/04/08 01:06:00;;;;;;;4.87;2.20;;;;;;;16.53;55.75;99539.28;4315634;33;34654;-90
2024/04/08 01:08:27;;;;;;;5.35;2.35;;;;;;;16.39;55.69;99535.00;4313811;33;33912;-90
2024/04/08 01:10:55;;;;;;;5.25;1.95;;;;;;;16.48;55.23;99535.84;4316307;33;33787;-89
2024/04/08 01:13:21;;;;;;;5.45;2.53;;;;;;;16.58;54.95;99530.53;4315966;33;34221;-90
2024/04/08 01:15:48;;;;;;;4.53;2.37;;;;;;;16.40;55.49;99529.78;4315458;33;34692;-89
2024/04/08 01:18:16;;;;;;;5.68;2.10;;;;;;;16.44;55.66;99527.97;4290858;33;35124;-90
2024/04/08 01:20:42;;;;;;;4.07;1.98;;;;;;;16.25;55.41;99527.19;4316095;33;33933;-89
2024/04/08 01:23:13;;;;;;;4.78;2.45;;;;;;;16.38;54.92;99525.41;4302249;33;33405;-88
2024/04/08 01:25:40;;;;;;;6.00;2.42;;;;;;;16.45;54.76;99528.00;4301774;33;33830;-88
2024/04/08 01:28:06;;;;;;;5.43;2.22;;;;;;;16.35;54.84;99528.91;4315814;33;33578;-90
2024/04/08 01:30:33;;;;;;;4.18;2.35;;;;;;;16.25;55.44;99521.97;4301391;33;34729;-89
2024/04/08 01:32:59;;;;;;;5.75;2.40;;;;;;;16.18;55.32;99533.38;4314852;33;32607;-88
2024/04/08 01:35:26;;;;;;;4.35;2.12;;;;;;;16.28;55.09;99532.44;4313881;33;34084;-89
2024/04/08 01:37:52;;;;;;;5.30;2.15;;;;;;;16.42;54.56;99524.53;4315352;33;34926;-90
2024/04/08 01:40:19;;;;;;;4.65;2.12;;;;;;;16.56;53.95;99532.31;4314554;33;34802;-88
2024/04/08 01:42:46;;;;;;;4.55;2.00;;;;;;;16.45;54.66;99535.84;4315304;33;33015;-89
2024/04/08 01:45:12;;;;;;;4.90;2.22;;;;;;;16.39;54.23;99524.53;4314909;33;34042;-88
2024/04/08 01:47:39;;;;;;;7.45;2.72;;;;;;;16.45;54.24;99530.59;4315355;33;32948;-90
2024/04/08 01:50:06;;;;;;;3.92;1.98;;;;;;;16.47;54.00;99522.75;4316038;33;34768;-91
2024/04/08 01:52:32;;;;;;;6.20;2.55;;;;;;;16.63;53.34;99520.91;4316559;33;34064;-88
2024/04/08 01:54:59;;;;;;;4.20;2.20;;;;;;;16.53;53.69;99523.59;4319365;33;33624;-90
2024/04/08 01:57:27;;;;;;;4.78;2.42;;;;;;;16.50;53.75;99520.97;4320741;33;35004;-91
2024/04/08 01:59:54;;;;;;;5.70;2.37;;;;;;;16.48;53.56;99527.97;4302585;33;33176;-89
2024/04/08 02:02:20;;;;;;;4.22;1.75;;;;;;;16.49;53.68;99521.00;4296956;33;33009;-88
2024/04/08 02:04:47;;;;;;;4.85;2.25;;;;;;;16.58;53.51;99522.69;4314824;33;32373;-91
2024/04/08 02:07:14;;;;;;;5.12;2.17;;;;;;;16.39;54.75;99524.53;4316041;33;34342;-91
2024/04/08 02:09:40;;;;;;;4.90;2.35;;;;;;;16.38;54.20;99534.13;4301887;33;33101;-89
2024/04/08 02:12:07;;;;;;;4.85;2.22;;;;;;;16.30;54.37;99528.06;4328100;33;33299;-88
2024/04/08 02:14:33;;;;;;;4.37;2.00;;;;;;;16.31;54.02;99529.81;4322169;33;34837;-90
2024/04/08 02:17:01;;;;;;;4.72;2.25;;;;;;;16.30;54.12;99520.22;4316430;33;33803;-91
2024/04/08 02:19:28;;;;;;;6.80;2.58;;;;;;;16.17;54.49;99527.22;4327458;33;33737;-88
2024/04/08 02:21:54;;;;;;;5.18;2.30;;;;;;;16.30;54.26;99520.22;4312879;33;34392;-88
2024/04/08 02:24:21;;;;;;;4.97;2.10;;;;;;;16.14;54.87;99523.75;4302718;33;33229;-90
2024/04/08 02:26:47;;;;;;;7.75;2.75;;;;;;;16.15;54.71;99523.78;4316156;33;33956;-90
2024/04/08 02:29:14;;;;;;;5.22;2.78;;;;;;;16.05;54.78;99536.00;4316375;33;33618;-91
2024/04/08 02:31:40;;;;;;;5.15;2.70;;;;;;;16.05;55.14;99533.38;4324067;33;34324;-90
2024/04/08 02:34:07;;;;;;;6.75;2.70;;;;;;;15.96;55.42;99524.72;4313831;33;36602;-88
2024/04/08 02:36:34;;;;;;;6.32;2.90;;;;;;;15.99;55.09;99529.94;4315747;33;34284;-88
2024/04/08 02:39:00;;;;;;;6.75;2.67;;;;;;;16.00;55.08;99519.47;4315143;33;33534;-90
2024/04/08 02:41:27;;;;;;;5.78;2.87;;;;;;;16.05;54.91;99517.69;4317485;33;33183;-90
2024/04/08 02:43:54;;;;;;;5.55;2.65;;;;;;;16.07;54.65;99522.06;4315463;33;33666;-88
2024/04/08 02:46:20;;;;;;;5.47;2.97;;;;;;;16.05;54.41;99509.84;4315936;33;34163;-89
2024/04/08 02:48:47;;;;;;;7.00;2.90;;;;;;;15.96;55.37;99520.34;4316123;33;34339;-89
2024/04/08 02:51:13;;;;;;;6.50;2.40;;;;;;;15.90;55.76;99519.50;4315637;33;33052;-90
2024/04/08 02:53:40;;;;;;;5.97;2.90;;;;;;;15.89;55.64;99526.47;4314874;33;34726;-90
2024/04/08 02:56:07;;;;;;;5.75;2.80;;;;;;;15.86;55.35;99520.37;4315183;33;34763;-89
2024/04/08 02:58:33;;;;;;;5.57;2.53;;;;;;;15.98;55.02;99521.19;4315706;33;33959;-90
2024/04/08 03:01:09;;;;;;;6.32;2.87;;;;;;;15.85;54.95;99516.91;4315716;33;33833;-90
2024/04/08 03:03:36;;;;;;;5.97;2.62;;;;;;;15.93;55.37;99530.81;4305605;33;34036;-90
2024/04/08 03:06:21;;;;;;;5.70;2.70;;;;;;;15.73;55.63;99525.66;4313774;33;34151;-90
2024/04/08 03:08:47;;;;;;;5.95;2.50;;;;;;;15.88;55.17;99526.50;4302841;33;33810;-90
2024/04/08 03:11:14;;;;;;;6.47;2.80;;;;;;;15.76;55.02;99515.19;4315444;33;33257;-89
2024/04/08 03:13:40;;;;;;;8.15;2.67;;;;;;;15.72;55.38;99516.06;4315782;33;34041;-89
2024/04/08 03:16:07;;;;;;;8.85;3.10;;;;;;;15.52;55.94;99525.66;4315392;33;34211;-89
2024/04/08 03:18:34;;;;;;;4.60;2.67;;;;;;;15.58;56.25;99518.69;4329558;33;34409;-88
2024/04/08 03:21:02;;;;;;;4.75;2.50;;;;;;;15.59;56.00;99519.53;4323398;33;33036;-89
2024/04/08 03:23:28;;;;;;;6.12;2.35;;;;;;;15.54;55.94;99526.53;4302369;33;33788;-88
2024/04/08 03:25:59;;;;;;;6.97;2.72;;;;;;;15.62;55.63;99519.53;4303651;33;34260;-88
2024/04/08 03:28:28;;;;;;;7.20;3.20;;;;;;;15.48;56.21;99522.16;4300858;33;34036;-89
2024/04/08 03:30:56;;;;;;;5.35;2.90;;;;;;;15.36;56.58;99518.72;4300100;33;33111;-88
2024/04/08 03:33:24;;;;;;;7.47;2.58;;;;;;;15.36;56.55;99523.94;4314410;33;34025;-87
2024/04/08 03:35:51;;;;;;;4.30;2.15;;;;;;;15.53;55.91;99523.06;4314877;33;33904;-88
2024/04/08 03:38:19;;;;;;;4.43;2.28;;;;;;;15.50;55.73;99519.56;4319460;33;33907;-88
2024/04/08 03:40:56;;;;;;;5.10;2.40;;;;;;;15.55;55.43;99513.44;4314195;33;33652;-89
2024/04/08 03:43:22;;;;;;;5.12;2.17;;;;;;;15.35;56.31;99514.38;4313239;33;34124;-88
2024/04/08 03:45:50;;;;;;;4.10;2.35;;;;;;;15.44;56.37;99530.88;4325979;33;34808;-90
2024/04/08 03:48:16;;;;;;;5.32;2.37;;;;;;;15.48;55.72;99516.94;4302274;33;33572;-88
2024/04/08 03:50:43;;;;;;;4.95;2.30;;;;;;;15.33;56.12;99517.81;4315059;33;34174;-89
2024/04/08 03:53:11;;;;;;;7.65;2.58;;;;;;;15.36;56.24;99522.19;4315965;33;33629;-90
2024/04/08 03:55:39;;;;;;;4.60;2.05;;;;;;;15.42;55.78;99521.31;4314084;33;32882;-89
2024/04/08 03:58:06;;;;;;;5.32;2.47;;;;;;;15.38;56.70;99519.56;4314206;33;34878;-90
2024/04/08 04:00:32;;;;;;;6.12;2.30;;;;;;;15.28;57.55;99521.34;4312158;33;33490;-88
2024/04/08 04:02:59;;;;;;;7.12;2.62;;;;;;;15.12;58.02;99517.00;4318656;33;33934;-89
2024/04/08 04:05:25;;;;;;;5.93;2.22;;;;;;;15.34;57.64;99516.09;4313272;33;34237;-88
2024/04/08 04:07:52;;;;;;;3.72;2.20;;;;;;;15.11;57.43;99515.22;4313886;33;34004;-90
2024/04/08 04:10:18;;;;;;;4.85;2.10;;;;;;;15.15;57.31;99519.56;4315328;33;33055;-89
2024/04/08 04:12:45;;;;;;;9.73;2.25;;;;;;;15.27;56.59;99507.41;4317520;33;33903;-89
2024/04/08 04:15:14;;;;;;;4.95;2.20;;;;;;;15.34;56.28;99508.25;4318038;33;33690;-88
2024/04/08 04:17:42;;;;;;;5.05;2.33;;;;;;;15.30;56.57;99504.78;4303064;33;34207;-90
2024/04/08 04:20:10;;;;;;;5.62;2.40;;;;;;;15.21;56.85;99507.41;4302756;33;32173;-87
2024/04/08 04:22:37;;;;;;;5.75;2.37;;;;;;;15.35;56.55;99501.31;4316075;33;34015;-91
2024/04/08 04:25:04;;;;;;;5.35;2.30;;;;;;;15.22;56.68;99495.19;4315783;33;34180;-90
2024/04/08 04:27:31;;;;;;;4.20;2.30;;;;;;;15.22;56.68;99492.59;4315468;33;34036;-87
2024/04/08 04:29:58;;;;;;;5.68;3.00;;;;;;;15.13;57.13;99492.63;4314746;33;33638;-93
2024/04/08 04:32:24;;;;;;;5.57;2.28;;;;;;;15.02;57.66;99493.47;4315118;33;34749;-92
2024/04/08 04:34:52;;;;;;;5.20;2.40;;;;;;;15.20;57.59;99492.59;4315776;33;34344;-90
2024/04/08 04:37:19;;;;;;;6.97;3.12;;;;;;;15.18;58.10;99493.47;4303828;33;33957;-92
2024/04/08 04:39:46;;;;;;;5.78;2.62;;;;;;;15.21;58.26;99496.09;4310897;33;34231;-92
2024/04/08 04:42:13;;;;;;;5.37;2.53;;;;;;;15.39;58.09;99482.13;4316540;33;33995;-87
2024/04/08 04:44:39;;;;;;;5.37;2.55;;;;;;;15.53;57.34;99485.56;4313958;33;35084;-85
2024/04/08 04:47:06;;;;;;;7.53;2.75;;;;;;;15.58;57.71;99481.22;4302491;33;34331;-87
2024/04/08 04:49:33;;;;;;;6.62;2.58;;;;;;;15.84;57.44;99483.81;4302184;33;34313;-87
2024/04/08 04:52:00;;;;;;;6.30;2.97;;;;;;;16.04;58.16;99481.97;4302860;33;33991;-88
2024/04/08 04:54:26;;;;;;;10.32;2.65;;;;;;;16.16;57.33;99486.25;4300101;33;35031;-87
2024/04/08 04:56:53;;;;;;;5.15;2.40;;;;;;;16.49;57.08;99485.22;4312532;33;33842;-85
2024/04/08 04:59:21;;;;;;;4.82;2.42;;;;;;;16.69;57.13;99490.31;4321418;33;33226;-87
2024/04/08 05:01:48;;;;;;;6.35;2.53;;;;;;;16.93;57.23;99486.72;4313987;33;34648;-88
2024/04/08 05:04:15;;;;;;;4.90;2.10;;;;;;;17.26;55.26;99482.91;4313157;33;34234;-89
2024/04/08 05:06:41;;;;;;;5.28;2.45;;;;;;;17.38;54.81;99474.06;4322851;33;32302;-91
2024/04/08 05:09:08;;;;;;;5.37;2.40;;;;;;;17.66;53.74;99479.03;4321373;33;33949;-89
2024/04/08 05:11:35;;;;;;;8.73;2.97;;;;;;;17.80;53.76;99481.50;4316836;33;33837;-86
2024/04/08 05:14:01;;;;;;;6.45;2.58;;;;;;;17.46;54.36;99472.25;4308137;33;35043;-84
2024/04/08 05:16:29;;;;;;;6.03;2.97;;;;;;;17.70;53.84;99473.72;4303684;33;35243;-87
2024/04/08 05:18:56;;;;;;;7.35;3.03;;;;;;;17.69;53.21;99478.97;4306651;33;33598;-84
2024/04/08 05:21:22;;;;;;;4.65;2.40;;;;;;;17.54;52.37;99479.12;4330722;33;34728;-85
2024/04/08 05:23:49;;;;;;;5.68;2.65;;;;;;;17.47;52.56;99484.47;4331416;33;34265;-84
2024/04/08 05:26:17;;;;;;;9.23;2.50;;;;;;;17.77;51.59;99481.53;4328234;33;34863;-87
2024/04/08 05:28:43;;;;;;;4.93;1.90;;;;;;;17.71;51.95;99483.31;4303572;33;33013;-87
2024/04/08 05:31:10;;;;;;;6.40;2.62;;;;;;;17.97;51.44;99488.31;4304397;33;34823;-88
2024/04/08 05:33:37;;;;;;;5.78;2.50;;;;;;;17.87;50.73;99488.44;4306725;33;33407;-86
2024/04/08 05:36:04;;;;;;;5.87;2.78;;;;;;;17.88;50.47;99490.16;4315236;33;34770;-89
2024/04/08 05:38:30;;;;;;;5.72;2.65;;;;;;;17.81;50.43;99489.38;4316996;33;35026;-88
2024/04/08 05:41:03;;;;;;;6.30;2.53;;;;;;;18.05;50.30;99493.47;4320659;33;34001;-86
2024/04/08 05:43:31;;;;;;;4.05;2.40;;;;;;;18.07;49.29;99486.44;4331353;33;35352;-88
2024/04/08 05:45:58;;;;;;;5.60;2.25;;;;;;;17.84;50.08;99491.97;4331516;33;33811;-87
2024/04/08 05:48:24;;;;;;;5.65;2.92;;;;;;;17.63;50.14;99487.78;4318682;33;33141;-89
2024/04/08 05:50:51;;;;;;;6.47;2.67;;;;;;;17.36;50.84;99486.31;4316352;33;34054;-86
2024/04/08 05:53:18;;;;;;;6.20;2.78;;;;;;;17.69;49.96;99492.97;4316554;33;33982;-89
2024/04/08 05:55:44;;;;;;;5.87;3.25;;;;;;;17.60;50.41;99493.06;4303415;33;33808;-90
2024/04/08 05:58:11;;;;;;;6.57;3.00;;;;;;;17.48;50.31;99495.81;4316527;33;34291;-88
2024/04/08 06:00:38;;;;;;;8.88;3.00;;;;;;;17.62;50.63;99498.31;4316328;33;33543;-85
2024/04/08 06:03:06;;;;;;;7.65;2.87;;;;;;;17.64;51.25;99496.53;4291342;33;34285;-89
2024/04/08 06:05:33;;;;;;;7.55;2.95;;;;;;;17.32;50.40;99505.59;4301900;33;33930;-89
2024/04/08 06:07:59;;;;;;;8.00;3.37;;;;;;;17.57;50.85;99497.47;4288758;33;33476;-87
2024/04/08 06:10:30;;;;;;;7.78;3.08;;;;;;;17.89;49.59;99497.16;4302091;33;33906;-86
2024/04/08 06:12:57;;;;;;;7.05;3.55;;;;;;;17.71;50.54;99495.56;4300059;33;34199;-85
2024/04/08 06:15:24;;;;;;;7.07;3.35;;;;;;;17.72;50.99;99494.69;4302198;33;34805;-87
2024/04/08 06:17:50;;;;;;;5.82;3.58;;;;;;;17.95;49.77;99486.56;4315750;33;33601;-85
2024/04/08 06:20:17;;;;;;;8.38;3.42;;;;;;;17.99;50.04;99494.41;4316521;33;34087;-84
2024/04/08 06:22:44;;;;;;;9.82;3.90;;;;;;;17.84;51.27;99494.59;4303358;33;32780;-87
2024/04/08 06:25:11;;;;;;;9.02;4.00;;;;;;;17.80;51.44;99490.25;4316824;33;34054;-84
2024/04/08 06:27:37;;;;;;;7.78;4.15;;;;;;;18.07;50.73;99491.69;4316369;33;33558;-86
2024/04/08 06:30:04;;;;;;;6.45;4.05;;;;;;;17.72;52.24;99484.19;4313268;33;34887;-86
2024/04/08 06:32:32;;;;;;;8.57;4.37;;;;;;;17.85;51.51;99487.59;4288312;33;33384;-86
2024/04/08 06:34:58;;;;;;;8.55;4.53;;;;;;;17.85;52.02;99485.84;4301824;33;33650;-87
2024/04/08 06:37:24;;;;;;;13.80;9.30;;;;;;;17.76;51.88;99485.91;4302021;33;34640;-85
2024/04/08 06:39:51;;;;;;;10.82;5.05;;;;;;;17.75;52.81;99484.19;4302018;33;34615;-85
2024/04/08 06:42:19;;;;;;;8.00;3.67;;;;;;;17.85;50.71;99490.22;4301791;33;34379;-85
2024/04/08 06:44:49;;;;;;;7.55;4.80;;;;;;;18.15;50.41;99492.47;4288290;33;33003;-84
2024/04/08 06:47:17;;;;;;;10.80;5.65;;;;;;;17.97;49.48;99484.81;4301734;33;33577;-85
2024/04/08 06:49:44;;;;;;;9.45;4.40;;;;;;;18.28;49.90;99497.53;4288440;33;34790;-85
2024/04/08 06:52:10;;;;;;;8.95;3.97;;;;;;;18.32;48.69;99502.72;4301419;33;34843;-83
2024/04/08 06:54:37;;;;;;;11.55;5.05;;;;;;;18.26;49.06;99492.31;4308235;33;34005;-86
2024/04/08 06:57:04;;;;;;;10.23;6.28;;;;;;;18.61;48.82;99499.72;4302176;33;33995;-86
2024/04/08 06:59:30;;;;;;;11.63;5.90;;;;;;;18.58;49.31;99504.13;4301750;33;33773;-86
2024/04/08 07:01:57;;;;;;;8.32;5.15;;;;;;;18.47;48.12;99496.41;4301596;33;34041;-87
2024/04/08 07:04:23;;;;;;;9.68;5.30;;;;;;;18.31;48.17;99505.37;4301598;33;33845;-87
2024/04/08 07:06:50;;;;;;;14.07;4.90;;;;;;;18.54;49.27;99502.44;4288460;33;32803;-87
2024/04/08 07:09:17;;;;;;;12.68;4.95;;;;;;;18.66;48.03;99502.25;4301654;33;33668;-88
2024/04/08 07:11:45;;;;;;;8.45;5.25;;;;;;;18.45;48.71;99504.31;4301507;33;34757;-87
2024/04/08 07:14:13;;;;;;;11.57;5.55;;;;;;;18.73;48.18;99503.06;4301581;33;34659;-88
2024/04/08 07:16:40;;;;;;;17.55;9.68;;;;;;;18.61;47.30;99504.09;4301415;33;34349;-86
2024/04/08 07:19:06;;;;;;;52.85;31.87;;;;;;;18.81;47.63;99506.44;4301641;33;33781;-87
2024/04/08 07:21:33;;;;;;;9.68;5.05;;;;;;;19.09;48.58;99510.38;4301562;33;35093;-86
2024/04/08 07:24:00;;;;;;;17.95;9.80;;;;;;;19.25;46.49;99503.13;4301403;33;33974;-87
2024/04/08 07:26:26;;;;;;;28.10;15.63;;;;;;;19.02;47.13;99511.38;4312161;33;34236;-86
2024/04/08 07:28:53;;;;;;;13.23;6.87;;;;;;;18.91;46.77;99511.53;4301596;33;33084;-84
2024/04/08 07:31:20;;;;;;;10.23;5.12;;;;;;;19.39;46.08;99516.84;4312078;33;33833;-86
2024/04/08 07:33:47;;;;;;;10.35;4.90;;;;;;;19.47;46.99;99526.38;4312209;33;33907;-87
2024/04/08 07:36:14;;;;;;;9.75;4.70;;;;;;;19.62;46.76;99513.00;4301492;33;34341;-86
2024/04/08 07:38:41;;;;;;;8.95;4.07;;;;;;;19.58;46.02;99514.78;4301547;33;34035;-85
2024/04/08 07:41:07;;;;;;;7.90;3.92;;;;;;;19.39;46.94;99523.88;4301413;33;33245;-88
2024/04/08 07:43:36;;;;;;;11.77;4.70;;;;;;;19.64;46.49;99521.72;4288665;33;34635;-87
2024/04/08 07:46:04;;;;;;;11.10;5.18;;;;;;;19.29;46.61;99531.09;4302744;33;33445;-86
2024/04/08 07:48:30;;;;;;;12.20;5.90;;;;;;;19.09;46.67;99527.87;4313579;33;33818;-86
2024/04/08 07:50:57;;;;;;;10.82;4.80;;;;;;;19.15;46.46;99525.19;4302937;33;35094;-88
2024/04/08 07:53:23;;;;;;;8.43;3.78;;;;;;;19.25;46.79;99524.12;4303288;33;34553;-88
2024/04/08 07:55:50;;;;;;;7.78;4.30;;;;;;;19.91;45.33;99515.94;4302997;33;33378;-87
2024/04/08 07:58:17;;;;;;;10.40;3.97;;;;;;;20.15;44.95;99521.59;4303162;33;33419;-88
2024/04/08 08:00:55;;;;;;;12.75;6.07;;;;;;;20.33;46.11;99520.34;4301497;33;33949;-86
2024/04/08 08:03:23;;;;;;;11.95;5.35;;;;;;;19.99;45.62;99517.56;4289574;33;33500;-87
2024/04/08 08:05:49;;;;;;;22.62;14.27;;;;;;;19.92;46.56;99517.66;4302935;33;33210;-87
2024/04/08 08:08:16;;;;;;;26.35;16.60;;;;;;;19.94;46.89;99520.28;4302702;33;34062;-87
2024/04/08 08:10:44;;;;;;;17.12;8.60;;;;;;;19.69;46.88;99517.25;4287005;33;34132;-86
2024/04/08 08:13:11;;;;;;;9.13;3.97;;;;;;;20.12;46.57;99526.94;4296559;33;34022;-87
2024/04/08 08:15:38;;;;;;;7.82;4.20;;;;;;;20.35;46.73;99522.06;4302627;33;34157;-87
2024/04/08 08:18:05;;;;;;;9.68;4.05;;;;;;;20.77;46.17;99519.41;4302555;33;33867;-86
2024/04/08 08:20:33;;;;;;;8.23;4.03;;;;;;;20.77;45.18;99519.41;4302688;33;34420;-87
2024/04/08 08:23:00;;;;;;;6.93;3.53;;;;;;;20.48;45.58;99516.53;4303056;33;33833;-86
2024/04/08 08:25:27;;;;;;;8.90;4.35;;;;;;;20.68;44.93;99519.59;4302644;33;34379;-86
2024/04/08 08:27:53;;;;;;;16.17;8.32;;;;;;;20.45;45.45;99519.22;4313397;33;33848;-87
2024/04/08 08:30:19;;;;;;;11.68;5.72;;;;;;;20.58;45.21;99523.38;4302429;33;34001;-86
2024/04/08 08:32:50;;;;;;;14.25;7.78;;;;;;;20.17;46.25;99509.28;4290105;33;33611;-87
2024/04/08 08:35:16;;;;;;;9.57;4.10;;;;;;;20.57;46.36;99511.06;4317142;33;33797;-86
2024/04/08 08:37:42;;;;;;;7.90;3.65;;;;;;;20.49;45.97;99513.87;4303845;33;33524;-86
2024/04/08 08:40:09;;;;;;;10.10;4.37;;;;;;;20.29;45.95;99513.44;4316821;33;35209;-84
2024/04/08 08:42:36;;;;;;;7.45;3.58;;;;;;;20.39;45.70;99517.59;4322991;33;34837;-85
2024/04/08 08:45:06;;;;;;;10.15;3.70;;;;;;;20.25;45.91;99515.25;4325909;33;33514;-85
2024/04/08 08:47:33;;;;;;;10.10;4.37;;;;;;;20.83;46.28;99513.97;4303939;33;33955;-85
2024/04/08 08:50:02;;;;;;;11.90;5.95;;;;;;;20.88;44.67;99503.34;4303623;33;33358;-84
2024/04/08 08:52:29;;;;;;;10.88;4.35;;;;;;;21.03;45.00;99510.88;4316952;33;34670;-85
2024/04/08 08:54:56;;;;;;;9.40;3.83;;;;;;;21.00;44.80;99516.22;4316801;33;33647;-85
2024/04/08 08:57:24;;;;;;;7.87;3.33;;;;;;;21.18;44.37;99508.78;4303638;33;33989;-87
2024/04/08 08:59:51;;;;;;;8.55;3.42;;;;;;;21.31;45.00;99504.91;4317027;33;34189;-88
2024/04/08 09:02:18;;;;;;;9.45;3.85;;;;;;;21.44;43.99;99500.22;4317008;33;33633;-84
2024/04/08 09:04:44;;;;;;;8.70;4.20;;;;;;;20.94;45.25;99510.22;4316956;33;33467;-88
2024/04/08 09:07:11;;;;;;;12.35;4.78;;;;;;;20.82;45.22;99512.25;4317116;33;34639;-87
2024/04/08 09:09:38;;;;;;;17.70;6.82;;;;;;;21.17;44.66;99499.97;4327587;33;34892;-88
2024/04/08 09:12:10;;;;;;;11.38;4.10;;;;;;;21.15;45.49;99499.19;4316881;33;34747;-84
2024/04/08 09:14:36;;;;;;;11.12;3.55;;;;;;;21.40;45.49;99493.28;4303654;33;33489;-86
2024/04/08 09:17:07;;;;;;;8.75;3.62;;;;;;;21.69;44.50;99490.75;4316702;33;34888;-86
2024/04/08 09:19:34;;;;;;;11.15;3.25;;;;;;;22.14;43.65;99493.03;4303526;33;34102;-87
2024/04/08 09:22:00;;;;;;;10.48;3.65;;;;;;;22.22;42.91;99490.16;4327575;33;33671;-85
2024/04/08 09:24:29;;;;;;;8.25;3.22;;;;;;;21.77;43.18;99493.19;4316716;33;33571;-86
2024/04/08 09:26:56;;;;;;;11.95;3.55;;;;;;;21.48;43.56;99497.47;4327615;33;33588;-86
2024/04/08 09:29:22;;;;;;;9.07;3.20;;;;;;;21.77;43.30;99491.41;4327453;33;34006;-86
2024/04/08 09:31:49;;;;;;;8.10;3.25;;;;;;;21.75;43.67;99493.22;4303212;33;33152;-86
2024/04/08 09:34:17;;;;;;;6.90;2.85;;;;;;;21.98;43.12;99491.72;4315249;33;31989;-87
2024/04/08 09:36:44;;;;;;;7.72;3.20;;;;;;;22.27;42.28;99489.09;4327548;33;33926;-87
2024/04/08 09:54:25;;;;;;;9.07;2.62;;;;;;;22.27;42.45;99473.25;5084435;27;20055;-82
2024/04/08 09:56:57;;;;;;;9.95;2.55;;;;;;;22.56;41.13;99464.44;4317404;33;31878;-84
2024/04/08 09:59:24;;;;;;;6.57;2.28;;;;;;;22.68;41.57;99463.19;4331366;33;34833;-84
2024/04/08 10:01:53;;;;;;;12.05;3.22;;;;;;;22.47;41.32;99451.53;4331382;33;34632;-85
2024/04/08 10:04:24;;;;;;;7.32;2.15;;;;;;;22.53;41.28;99450.47;4317884;33;33729;-84
2024/04/08 10:06:51;;;;;;;5.12;1.77;;;;;;;22.98;40.71;99449.94;4317173;33;33152;-83
2024/04/08 10:09:21;;;;;;;4.82;1.55;;;;;;;22.77;41.31;99441.78;4317970;33;33944;-84
2024/04/08 10:11:53;;;;;;;11.00;1.95;;;;;;;23.04;40.57;99442.66;4331046;33;34265;-85
2024/04/08 10:14:20;;;;;;;5.43;1.90;;;;;;;22.87;39.90;99449.38;4305990;33;33459;-87
2024/04/08 10:16:48;;;;;;;6.43;1.90;;;;;;;23.06;39.53;99438.16;4317718;33;33673;-84
2024/04/08 10:19:14;;;;;;;10.35;2.08;;;;;;;23.62;38.92;99430.94;4317938;33;33850;-84
2024/04/08 10:21:41;;;;;;;8.80;1.77;;;;;;;23.58;39.30;99427.56;4331306;33;34741;-84
2024/04/08 10:24:27;;;;;;;9.48;2.35;;;;;;;23.79;38.31;99420.66;4317922;33;34293;-85
2024/04/08 10:27:07;;;;;;;6.80;2.20;;;;;;;23.42;38.23;99426.38;4318082;33;32905;-83
2024/04/08 10:29:35;;;;;;;9.35;1.90;;;;;;;23.58;39.21;99424.91;4317680;33;33786;-87
2024/04/08 10:32:08;;;;;;;9.10;2.08;;;;;;;23.88;38.75;99419.44;4318163;33;34139;-84
2024/04/08 10:34:35;;;;;;;10.63;2.15;;;;;;;24.22;38.00;99416.38;4294145;33;32130;-86
2024/04/08 10:37:01;;;;;;;5.70;2.03;;;;;;;24.30;38.34;99424.00;4317830;33;33808;-84
2024/04/08 10:39:28;;;;;;;8.35;2.17;;;;;;;24.08;37.89;99421.31;4331337;33;34081;-87
2024/04/08 10:41:57;;;;;;;7.70;1.80;;;;;;;24.12;37.17;99425.56;4306120;33;33513;-84
2024/04/08 10:44:25;;;;;;;8.55;1.87;;;;;;;24.14;38.09;99421.97;4317824;33;33948;-89
2024/04/08 10:46:52;;;;;;;6.55;1.98;;;;;;;24.55;37.97;99416.84;4318110;33;33051;-84
2024/04/08 10:49:18;;;;;;;7.93;2.58;;;;;;;24.85;36.19;99404.13;4331425;33;34641;-85
2024/04/08 10:51:48;;;;;;;5.82;1.85;;;;;;;24.73;36.77;99413.41;4331244;33;34988;-84
2024/04/08 10:54:14;;;;;;;5.65;1.60;;;;;;;25.14;36.09;99397.59;4318013;33;33634;-92
2024/04/08 10:56:42;;;;;;;9.13;1.80;;;;;;;25.10;36.01;99403.09;4305719;33;35035;-85
2024/04/08 10:59:08;;;;;;;5.37;1.70;;;;;;;25.12;36.11;99396.81;4317994;33;34775;-84
2024/04/08 11:01:35;;;;;;;7.78;1.67;;;;;;;24.62;36.53;99404.19;4305870;33;33860;-85
2024/04/08 11:04:02;;;;;;;8.02;1.75;;;;;;;24.64;36.70;99403.22;4331820;33;33716;-91
2024/04/08 11:06:28;;;;;;;7.57;1.80;;;;;;;24.55;36.86;99397.41;4331313;33;33512;-90
2024/04/08 11:08:55;;;;;;;6.50;1.87;;;;;;;24.76;36.11;99396.53;4331456;33;33899;-91
2024/04/08 11:11:26;;;;;;;3.30;1.37;;;;;;;25.21;36.44;99382.28;4331659;33;35069;-84
2024/04/08 11:13:53;;;;;;;5.15;1.45;;;;;;;25.54;34.85;99382.56;4331448;33;33968;-84
2024/04/08 11:16:19;;;;;;;4.80;1.33;;;;;;;25.66;33.83;99384.66;4330987;33;34173;-94
2024/04/08 11:18:46;;;;;;;3.62;1.67;;;;;;;25.65;34.16;99374.97;4331484;33;34425;-90
2024/04/08 11:21:13;;;;;;;7.00;1.67;;;;;;;25.62;33.57;99372.47;4331368;33;34013;-89
2024/04/08 11:23:43;;;;;;;6.28;1.10;;;;;;;25.31;34.00;99354.41;4331351;33;33992;-84
2024/04/08 11:26:10;;;;;;;9.98;1.37;;;;;;;25.23;34.41;99360.06;4331893;33;33822;-84
2024/04/08 11:28:37;;;;;;;5.62;1.35;;;;;;;25.22;34.52;99346.84;4318249;33;34680;-88
2024/04/08 11:31:07;;;;;;;4.47;1.05;;;;;;;25.40;34.86;99359.28;4318055;33;33411;-84
2024/04/08 11:33:34;;;;;;;5.72;1.27;;;;;;;25.36;34.84;99363.03;4331461;33;34138;-85
2024/04/08 11:36:01;;;;;;;4.93;1.17;;;;;;;25.20;34.21;99338.97;4331027;33;32962;-84
2024/04/08 11:38:28;;;;;;;6.12;1.27;;;;;;;25.67;34.91;99337.72;4317988;33;34569;-84
2024/04/08 11:40:56;;;;;;;6.47;1.55;;;;;;;25.76;35.58;99336.44;4317930;33;34568;-84
2024/04/08 11:43:23;;;;;;;5.40;1.30;;;;;;;25.68;33.75;99332.38;4317540;33;33170;-84
2024/04/08 11:45:49;;;;;;;6.00;1.27;;;;;;;25.70;34.28;99325.16;4317769;33;33165;-84
2024/04/08 11:48:18;;;;;;;4.82;1.30;;;;;;;25.74;33.99;99323.25;4305563;33;33538;-84